sensor_id;sensor_type;location;lat;lon;timestamp;P1;durP1;ratioP1;P2;durP2;ratioP2
56299;SDS011;42209;6.376;-10.782;2023-03-04T09:08:51;9.77;;;5.65;;
56299;SDS011;42209;6.376;-10.782;2023-03-04T09:11:19;11.20;;;5.80;;
56299;SDS011;42209;6.376;-10.782;2023-03-04T09:13:47;7.82;;;4.35;;
56299;SDS011;42209;6.376;-10.782;2023-03-04T09:16:16;10.18;;;5.35;;
56299;SDS011;42209;6.376;-10.782;2023-03-04T09:18:44;8.45;;;4.75;;
56299;SDS011;42209;6.376;-10.782;2023-03-04T09:21:13;10.75;;;4.97;;
56299;SDS011;42209;6.376;-10.782;2023-03-04T09:26:13;8.80;;;5.18;;
56299;SDS011;42209;6.376;-10.782;2023-03-04T09:28:50;10.73;;;5.03;;
56299;SDS011;42209;6.376;-10.782;2023-03-04T09:31:28;9.80;;;5.10;;
56299;SDS011;42209;6.376;-10.782;2023-03-04T09:33:57;7.55;;;4.78;;
56299;SDS011;42209;6.376;-10.782;2023-03-04T09:36:26;7.68;;;4.75;;
56299;SDS011;42209;6.376;-10.782;2023-03-04T09:38:57;6.47;;;4.05;;
56299;SDS011;42209;6.376;-10.782;2023-03-04T09:42:09;7.40;;;4.78;;
56299;SDS011;42209;6.376;-10.782;2023-03-04T09:47:04;9.52;;;5.20;;
56299;SDS011;42209;6.376;-10.782;2023-03-04T09:49:37;6.88;;;4.47;;
56299;SDS011;42209;6.376;-10.782;2023-03-04T09:52:11;5.63;;;4.00;;
56299;SDS011;42209;6.376;-10.782;2023-03-04T10:00:42;5.50;;;3.85;;
56299;SDS011;42209;6.376;-10.782;2023-03-04T10:03:15;6.82;;;4.40;;
56299;SDS011;42209;6.376;-10.782;2023-03-04T10:11:18;8.32;;;4.15;;
56299;SDS011;42209;6.376;-10.782;2023-03-04T10:19:27;6.55;;;3.20;;
56299;SDS011;42209;6.376;-10.782;2023-03-04T10:21:57;7.50;;;3.60;;
56299;SDS011;42209;6.376;-10.782;2023-03-04T10:27:03;7.35;;;4.07;;
56299;SDS011;42209;6.376;-10.782;2023-03-04T10:29:34;6.78;;;3.97;;
56299;SDS011;42209;6.376;-10.782;2023-03-04T10:32:03;6.40;;;3.80;;
56299;SDS011;42209;6.376;-10.782;2023-03-04T10:34:31;8.18;;;4.00;;
56299;SDS011;42209;6.376;-10.782;2023-03-04T10:47:24;8.27;;;3.92;;
56299;SDS011;42209;6.376;-10.782;2023-03-04T10:49:57;7.25;;;4.35;;
56299;SDS011;42209;6.376;-10.782;2023-03-04T10:52:33;6.78;;;4.20;;
56299;SDS011;42209;6.376;-10.782;2023-03-04T10:55:05;7.85;;;3.63;;
56299;SDS011;42209;6.376;-10.782;2023-03-04T10:57:51;7.22;;;3.80;;
56299;SDS011;42209;6.376;-10.782;2023-03-04T11:00:25;7.63;;;4.70;;
56299;SDS011;42209;6.376;-10.782;2023-03-04T11:06:15;5.75;;;4.10;;
56299;SDS011;42209;6.376;-10.782;2023-03-04T11:08:53;9.73;;;4.53;;
56299;SDS011;42209;6.376;-10.782;2023-03-04T11:11:24;6.57;;;4.35;;
56299;SDS011;42209;6.376;-10.782;2023-03-04T11:14:09;7.30;;;4.32;;
56299;SDS011;42209;6.376;-10.782;2023-03-04T11:16:44;7.70;;;4.47;;
56299;SDS011;42209;6.376;-10.782;2023-03-04T11:19:38;5.53;;;3.70;;
56299;SDS011;42209;6.376;-10.782;2023-03-04T11:22:08;7.13;;;4.32;;
56299;SDS011;42209;6.376;-10.782;2023-03-04T11:24:40;5.22;;;3.55;;
56299;SDS011;42209;6.376;-10.782;2023-03-04T11:27:14;5.25;;;3.95;;
56299;SDS011;42209;6.376;-10.782;2023-03-04T11:29:51;6.50;;;3.87;;
56299;SDS011;42209;6.376;-10.782;2023-03-04T11:32:26;6.78;;;3.92;;
56299;SDS011;42209;6.376;-10.782;2023-03-04T11:35:13;6.78;;;3.70;;
56299;SDS011;42209;6.376;-10.782;2023-03-04T11:38:15;6.03;;;4.25;;
56299;SDS011;42209;6.376;-10.782;2023-03-04T11:41:10;5.43;;;3.83;;
56299;SDS011;42209;6.376;-10.782;2023-03-04T11:43:52;5.32;;;3.47;;
56299;SDS011;42209;6.376;-10.782;2023-03-04T12:03:41;7.68;;;3.53;;
56299;SDS011;42209;6.376;-10.782;2023-03-04T12:09:02;6.15;;;3.58;;
56299;SDS011;42209;6.376;-10.782;2023-03-04T12:11:45;7.97;;;3.50;;
56299;SDS011;42209;6.376;-10.782;2023-03-04T12:17:42;8.27;;;3.55;;
56299;SDS011;42209;6.376;-10.782;2023-03-04T12:20:15;7.05;;;3.75;;
56299;SDS011;42209;6.376;-10.782;2023-03-04T12:23:09;4.45;;;3.28;;
56299;SDS011;42209;6.376;-10.782;2023-03-04T12:28:41;6.25;;;3.88;;
56299;SDS011;42209;6.376;-10.782;2023-03-04T12:39:46;8.68;;;4.93;;
56299;SDS011;42209;6.376;-10.782;2023-03-04T12:45:14;6.70;;;3.17;;
56299;SDS011;42209;6.376;-10.782;2023-03-04T12:55:52;6.57;;;4.18;;
56299;SDS011;42209;6.376;-10.782;2023-03-04T12:58:28;9.95;;;3.90;;
56299;SDS011;42209;6.376;-10.782;2023-03-04T13:03:54;6.22;;;3.80;;
56299;SDS011;42209;6.376;-10.782;2023-03-04T13:06:36;7.30;;;3.30;;
56299;SDS011;42209;6.376;-10.782;2023-03-04T13:09:41;5.93;;;3.40;;
56299;SDS011;42209;6.376;-10.782;2023-03-04T13:12:24;6.07;;;3.03;;
56299;SDS011;42209;6.376;-10.782;2023-03-04T13:25:39;6.00;;;3.55;;
56299;SDS011;42209;6.376;-10.782;2023-03-04T13:28:20;5.70;;;3.67;;
56299;SDS011;42209;6.376;-10.782;2023-03-04T13:43:45;5.22;;;2.97;;
56299;SDS011;42209;6.376;-10.782;2023-03-04T13:51:28;3.72;;;2.92;;
56299;SDS011;42209;6.376;-10.782;2023-03-04T14:04:19;4.97;;;2.92;;
56299;SDS011;42209;6.376;-10.782;2023-03-04T14:07:17;5.95;;;3.10;;
56299;SDS011;42209;6.376;-10.782;2023-03-04T14:12:35;6.30;;;3.53;;
56299;SDS011;42209;6.376;-10.782;2023-03-04T14:15:21;7.20;;;3.47;;
56299;SDS011;42209;6.376;-10.782;2023-03-04T14:17:51;5.90;;;2.72;;
56299;SDS011;42209;6.376;-10.782;2023-03-04T14:20:25;5.32;;;3.10;;
56299;SDS011;42209;6.376;-10.782;2023-03-04T14:22:57;6.53;;;3.35;;
56299;SDS011;42209;6.376;-10.782;2023-03-04T14:25:32;6.70;;;3.00;;
56299;SDS011;42209;6.376;-10.782;2023-03-04T14:30:37;5.40;;;2.85;;
56299;SDS011;42209;6.376;-10.782;2023-03-04T14:33:14;6.00;;;2.70;;
56299;SDS011;42209;6.376;-10.782;2023-03-04T14:35:46;5.05;;;2.80;;
56299;SDS011;42209;6.376;-10.782;2023-03-04T14:40:45;5.63;;;2.95;;
56299;SDS011;42209;6.376;-10.782;2023-03-04T14:43:26;5.40;;;3.22;;
56299;SDS011;42209;6.376;-10.782;2023-03-04T14:45:57;6.32;;;2.67;;
56299;SDS011;42209;6.376;-10.782;2023-03-04T14:48:34;5.60;;;2.88;;
56299;SDS011;42209;6.376;-10.782;2023-03-04T14:51:04;5.05;;;3.13;;
56299;SDS011;42209;6.376;-10.782;2023-03-04T14:53:32;7.63;;;3.10;;
56299;SDS011;42209;6.376;-10.782;2023-03-04T14:56:04;4.82;;;2.80;;
56299;SDS011;42209;6.376;-10.782;2023-03-04T14:58:34;3.50;;;2.78;;
56299;SDS011;42209;6.376;-10.782;2023-03-04T15:01:20;4.32;;;2.72;;
56299;SDS011;42209;6.376;-10.782;2023-03-04T15:06:28;6.53;;;2.95;;
56299;SDS011;42209;6.376;-10.782;2023-03-04T15:09:22;5.93;;;3.55;;
56299;SDS011;42209;6.376;-10.782;2023-03-04T15:14:48;6.22;;;3.42;;
56299;SDS011;42209;6.376;-10.782;2023-03-04T15:17:23;4.47;;;2.78;;
56299;SDS011;42209;6.376;-10.782;2023-03-04T15:25:15;5.03;;;3.00;;
56299;SDS011;42209;6.376;-10.782;2023-03-04T15:27:46;5.25;;;2.85;;
56299;SDS011;42209;6.376;-10.782;2023-03-04T15:30:27;4.50;;;3.00;;
56299;SDS011;42209;6.376;-10.782;2023-03-04T15:33:00;4.60;;;3.03;;
56299;SDS011;42209;6.376;-10.782;2023-03-04T15:37:58;7.53;;;2.95;;
56299;SDS011;42209;6.376;-10.782;2023-03-04T15:40:31;4.35;;;2.28;;
56299;SDS011;42209;6.376;-10.782;2023-03-04T15:43:04;5.10;;;2.63;;
56299;SDS011;42209;6.376;-10.782;2023-03-04T15:45:34;5.38;;;2.95;;
56299;SDS011;42209;6.376;-10.782;2023-03-04T15:48:04;7.72;;;3.10;;
56299;SDS011;42209;6.376;-10.782;2023-03-04T15:50:35;8.10;;;3.22;;
56299;SDS011;42209;6.376;-10.782;2023-03-04T15:53:26;6.18;;;3.40;;
56299;SDS011;42209;6.376;-10.782;2023-03-04T15:55:58;6.85;;;2.90;;
56299;SDS011;42209;6.376;-10.782;2023-03-04T15:58:28;4.72;;;3.00;;
56299;SDS011;42209;6.376;-10.782;2023-03-04T16:01:01;6.07;;;2.80;;
56299;SDS011;42209;6.376;-10.782;2023-03-04T16:03:29;6.38;;;3.60;;
56299;SDS011;42209;6.376;-10.782;2023-03-04T16:05:58;4.43;;;2.22;;
56299;SDS011;42209;6.376;-10.782;2023-03-04T16:08:26;4.80;;;2.80;;
56299;SDS011;42209;6.376;-10.782;2023-03-04T16:10:55;5.78;;;2.45;;
56299;SDS011;42209;6.376;-10.782;2023-03-04T16:13:23;6.72;;;3.55;;
56299;SDS011;42209;6.376;-10.782;2023-03-04T16:15:51;5.47;;;2.75;;
56299;SDS011;42209;6.376;-10.782;2023-03-04T16:18:20;4.30;;;2.15;;
56299;SDS011;42209;6.376;-10.782;2023-03-04T16:20:48;6.15;;;3.28;;
56299;SDS011;42209;6.376;-10.782;2023-03-04T16:23:20;6.00;;;2.80;;
56299;SDS011;42209;6.376;-10.782;2023-03-04T16:25:51;4.25;;;2.53;;
56299;SDS011;42209;6.376;-10.782;2023-03-04T16:28:28;6.53;;;2.72;;
56299;SDS011;42209;6.376;-10.782;2023-03-04T16:30:56;6.78;;;3.20;;
56299;SDS011;42209;6.376;-10.782;2023-03-04T16:35:52;6.78;;;2.65;;
56299;SDS011;42209;6.376;-10.782;2023-03-04T16:38:22;5.90;;;2.90;;
56299;SDS011;42209;6.376;-10.782;2023-03-04T16:40:53;5.93;;;2.55;;
56299;SDS011;42209;6.376;-10.782;2023-03-04T16:43:23;6.30;;;3.08;;
56299;SDS011;42209;6.376;-10.782;2023-03-04T16:45:51;5.15;;;2.10;;
56299;SDS011;42209;6.376;-10.782;2023-03-04T16:48:22;7.25;;;2.63;;
56299;SDS011;42209;6.376;-10.782;2023-03-04T16:50:51;5.22;;;2.95;;
56299;SDS011;42209;6.376;-10.782;2023-03-04T16:56:09;6.47;;;2.85;;
56299;SDS011;42209;6.376;-10.782;2023-03-04T16:58:42;4.00;;;2.13;;
56299;SDS011;42209;6.376;-10.782;2023-03-04T17:01:15;3.90;;;2.20;;
56299;SDS011;42209;6.376;-10.782;2023-03-04T17:03:46;4.78;;;2.25;;
56299;SDS011;42209;6.376;-10.782;2023-03-04T17:06:14;4.55;;;3.10;;
56299;SDS011;42209;6.376;-10.782;2023-03-04T17:08:43;4.38;;;2.33;;
56299;SDS011;42209;6.376;-10.782;2023-03-04T17:11:15;6.25;;;3.25;;
56299;SDS011;42209;6.376;-10.782;2023-03-04T17:13:48;4.93;;;2.60;;
56299;SDS011;42209;6.376;-10.782;2023-03-04T17:16:17;5.80;;;2.40;;
56299;SDS011;42209;6.376;-10.782;2023-03-04T17:18:46;4.43;;;2.67;;
56299;SDS011;42209;6.376;-10.782;2023-03-04T17:23:46;5.68;;;2.55;;
56299;SDS011;42209;6.376;-10.782;2023-03-04T17:26:15;4.72;;;2.80;;
56299;SDS011;42209;6.376;-10.782;2023-03-04T17:28:44;3.85;;;2.30;;
56299;SDS011;42209;6.376;-10.782;2023-03-04T17:31:14;4.50;;;2.17;;
56299;SDS011;42209;6.376;-10.782;2023-03-04T17:33:44;5.68;;;2.65;;
56299;SDS011;42209;6.376;-10.782;2023-03-04T17:36:13;4.53;;;2.28;;
56299;SDS011;42209;6.376;-10.782;2023-03-04T17:38:43;5.97;;;2.60;;
56299;SDS011;42209;6.376;-10.782;2023-03-04T17:41:12;6.93;;;2.60;;
56299;SDS011;42209;6.376;-10.782;2023-03-04T17:43:42;4.68;;;2.42;;
56299;SDS011;42209;6.376;-10.782;2023-03-04T17:46:16;5.00;;;2.67;;
56299;SDS011;42209;6.376;-10.782;2023-03-04T17:48:46;4.93;;;2.83;;
56299;SDS011;42209;6.376;-10.782;2023-03-04T17:51:15;6.07;;;2.90;;
56299;SDS011;42209;6.376;-10.782;2023-03-04T17:53:43;6.78;;;2.88;;
56299;SDS011;42209;6.376;-10.782;2023-03-04T17:58:40;5.70;;;2.67;;
56299;SDS011;42209;6.376;-10.782;2023-03-04T18:03:44;6.38;;;2.55;;
56299;SDS011;42209;6.376;-10.782;2023-03-04T18:06:12;5.05;;;2.55;;
56299;SDS011;42209;6.376;-10.782;2023-03-04T18:13:37;4.55;;;2.47;;
56299;SDS011;42209;6.376;-10.782;2023-03-04T18:16:07;5.53;;;2.88;;
56299;SDS011;42209;6.376;-10.782;2023-03-04T18:18:39;6.22;;;2.75;;
56299;SDS011;42209;6.376;-10.782;2023-03-04T18:21:07;4.10;;;2.75;;
56299;SDS011;42209;6.376;-10.782;2023-03-04T18:23:36;6.68;;;2.85;;
56299;SDS011;42209;6.376;-10.782;2023-03-04T18:26:04;6.28;;;3.30;;
56299;SDS011;42209;6.376;-10.782;2023-03-04T18:28:33;5.53;;;2.55;;
56299;SDS011;42209;6.376;-10.782;2023-03-04T18:31:02;4.43;;;2.75;;
56299;SDS011;42209;6.376;-10.782;2023-03-04T18:33:31;4.97;;;2.67;;
56299;SDS011;42209;6.376;-10.782;2023-03-04T18:36:01;3.22;;;2.08;;
56299;SDS011;42209;6.376;-10.782;2023-03-04T18:38:32;3.72;;;2.13;;
56299;SDS011;42209;6.376;-10.782;2023-03-04T18:41:05;3.33;;;2.20;;
56299;SDS011;42209;6.376;-10.782;2023-03-04T18:43:37;4.13;;;1.98;;
56299;SDS011;42209;6.376;-10.782;2023-03-04T18:48:55;5.88;;;2.60;;
56299;SDS011;42209;6.376;-10.782;2023-03-04T18:51:28;4.30;;;2.20;;
56299;SDS011;42209;6.376;-10.782;2023-03-04T18:53:57;4.28;;;2.83;;
56299;SDS011;42209;6.376;-10.782;2023-03-04T18:56:29;5.13;;;3.13;;
56299;SDS011;42209;6.376;-10.782;2023-03-04T18:59:06;3.72;;;2.30;;
56299;SDS011;42209;6.376;-10.782;2023-03-04T19:01:40;4.18;;;2.50;;
56299;SDS011;42209;6.376;-10.782;2023-03-04T19:04:09;5.88;;;2.58;;
56299;SDS011;42209;6.376;-10.782;2023-03-04T19:06:38;3.63;;;2.38;;
56299;SDS011;42209;6.376;-10.782;2023-03-04T19:14:02;4.53;;;2.63;;
56299;SDS011;42209;6.376;-10.782;2023-03-04T19:16:31;4.53;;;2.72;;
56299;SDS011;42209;6.376;-10.782;2023-03-04T19:18:59;4.50;;;2.60;;
56299;SDS011;42209;6.376;-10.782;2023-03-04T19:21:27;5.35;;;3.33;;
56299;SDS011;42209;6.376;-10.782;2023-03-04T19:23:56;5.63;;;3.08;;
56299;SDS011;42209;6.376;-10.782;2023-03-04T19:28:52;6.13;;;3.45;;
56299;SDS011;42209;6.376;-10.782;2023-03-04T19:33:48;4.32;;;2.78;;
56299;SDS011;42209;6.376;-10.782;2023-03-04T19:36:17;5.25;;;2.63;;
56299;SDS011;42209;6.376;-10.782;2023-03-04T19:41:13;6.22;;;3.55;;
56299;SDS011;42209;6.376;-10.782;2023-03-04T19:43:43;7.43;;;3.97;;
56299;SDS011;42209;6.376;-10.782;2023-03-04T19:46:11;6.13;;;3.72;;
56299;SDS011;42209;6.376;-10.782;2023-03-04T19:48:40;6.47;;;3.75;;
56299;SDS011;42209;6.376;-10.782;2023-03-04T19:53:40;4.78;;;2.75;;
56299;SDS011;42209;6.376;-10.782;2023-03-04T19:56:09;6.93;;;3.65;;
56299;SDS011;42209;6.376;-10.782;2023-03-04T20:03:34;5.47;;;3.42;;
56299;SDS011;42209;6.376;-10.782;2023-03-04T20:08:31;8.30;;;3.95;;
56299;SDS011;42209;6.376;-10.782;2023-03-04T20:11:05;8.00;;;4.05;;
56299;SDS011;42209;6.376;-10.782;2023-03-04T20:13:42;6.28;;;4.43;;
56299;SDS011;42209;6.376;-10.782;2023-03-04T20:16:11;6.65;;;4.55;;
56299;SDS011;42209;6.376;-10.782;2023-03-04T20:18:40;6.78;;;4.30;;
56299;SDS011;42209;6.376;-10.782;2023-03-04T20:21:11;8.02;;;5.07;;
56299;SDS011;42209;6.376;-10.782;2023-03-04T20:23:39;8.98;;;4.95;;
56299;SDS011;42209;6.376;-10.782;2023-03-04T20:40:29;9.07;;;6.35;;
56299;SDS011;42209;6.376;-10.782;2023-03-04T20:42:57;9.93;;;6.82;;
56299;SDS011;42209;6.376;-10.782;2023-03-04T20:47:54;9.00;;;6.32;;
56299;SDS011;42209;6.376;-10.782;2023-03-04T20:50:22;8.48;;;5.90;;
56299;SDS011;42209;6.376;-10.782;2023-03-04T20:52:51;8.48;;;6.43;;
56299;SDS011;42209;6.376;-10.782;2023-03-04T20:55:19;8.43;;;6.07;;
56299;SDS011;42209;6.376;-10.782;2023-03-04T20:57:48;7.75;;;5.63;;
56299;SDS011;42209;6.376;-10.782;2023-03-04T21:00:16;9.35;;;5.93;;
56299;SDS011;42209;6.376;-10.782;2023-03-04T21:02:45;9.80;;;6.85;;
56299;SDS011;42209;6.376;-10.782;2023-03-04T21:05:13;10.07;;;6.95;;
56299;SDS011;42209;6.376;-10.782;2023-03-04T21:10:10;11.20;;;6.95;;
56299;SDS011;42209;6.376;-10.782;2023-03-04T21:12:38;11.27;;;6.97;;
56299;SDS011;42209;6.376;-10.782;2023-03-04T21:15:07;10.60;;;6.75;;
56299;SDS011;42209;6.376;-10.782;2023-03-04T21:17:36;10.30;;;6.43;;
56299;SDS011;42209;6.376;-10.782;2023-03-04T21:20:04;10.25;;;7.18;;
56299;SDS011;42209;6.376;-10.782;2023-03-04T21:22:33;11.90;;;7.95;;
56299;SDS011;42209;6.376;-10.782;2023-03-04T21:25:02;11.23;;;7.72;;
56299;SDS011;42209;6.376;-10.782;2023-03-04T21:27:30;14.43;;;8.35;;
56299;SDS011;42209;6.376;-10.782;2023-03-04T21:29:59;12.38;;;7.75;;
56299;SDS011;42209;6.376;-10.782;2023-03-04T21:32:27;14.73;;;9.10;;
56299;SDS011;42209;6.376;-10.782;2023-03-04T21:34:56;14.25;;;9.05;;
56299;SDS011;42209;6.376;-10.782;2023-03-04T21:39:54;14.45;;;8.85;;
56299;SDS011;42209;6.376;-10.782;2023-03-04T21:42:23;15.07;;;9.70;;
56299;SDS011;42209;6.376;-10.782;2023-03-04T21:44:51;15.75;;;10.35;;
56299;SDS011;42209;6.376;-10.782;2023-03-04T21:47:23;17.25;;;10.95;;
56299;SDS011;42209;6.376;-10.782;2023-03-04T21:49:51;15.10;;;9.23;;
56299;SDS011;42209;6.376;-10.782;2023-03-04T21:52:20;18.58;;;9.63;;
56299;SDS011;42209;6.376;-10.782;2023-03-04T21:54:49;15.02;;;10.27;;
56299;SDS011;42209;6.376;-10.782;2023-03-04T21:57:18;15.80;;;10.00;;
56299;SDS011;42209;6.376;-10.782;2023-03-04T21:59:48;16.73;;;10.10;;
56299;SDS011;42209;6.376;-10.782;2023-03-04T22:02:17;15.93;;;9.80;;
56299;SDS011;42209;6.376;-10.782;2023-03-04T22:04:47;18.25;;;10.52;;
56299;SDS011;42209;6.376;-10.782;2023-03-04T22:09:45;14.25;;;9.82;;
56299;SDS011;42209;6.376;-10.782;2023-03-04T22:12:14;13.68;;;9.57;;
56299;SDS011;42209;6.376;-10.782;2023-03-04T22:14:45;16.13;;;11.13;;
56299;SDS011;42209;6.376;-10.782;2023-03-04T22:17:14;17.00;;;12.00;;
56299;SDS011;42209;6.376;-10.782;2023-03-04T22:19:43;16.65;;;10.25;;
56299;SDS011;42209;6.376;-10.782;2023-03-04T22:22:12;17.13;;;12.00;;
56299;SDS011;42209;6.376;-10.782;2023-03-04T22:24:41;17.65;;;10.40;;
56299;SDS011;42209;6.376;-10.782;2023-03-04T22:27:10;16.95;;;10.45;;
56299;SDS011;42209;6.376;-10.782;2023-03-04T22:29:38;13.00;;;8.73;;
56299;SDS011;42209;6.376;-10.782;2023-03-04T22:32:06;15.95;;;10.43;;
56299;SDS011;42209;6.376;-10.782;2023-03-04T22:34:35;16.73;;;10.63;;
56299;SDS011;42209;6.376;-10.782;2023-03-04T22:37:05;18.13;;;11.55;;
56299;SDS011;42209;6.376;-10.782;2023-03-04T22:39:33;17.67;;;11.75;;
56299;SDS011;42209;6.376;-10.782;2023-03-04T22:46:58;14.32;;;9.57;;
56299;SDS011;42209;6.376;-10.782;2023-03-04T22:49:26;17.10;;;11.48;;
56299;SDS011;42209;6.376;-10.782;2023-03-04T22:51:54;18.70;;;10.77;;
56299;SDS011;42209;6.376;-10.782;2023-03-04T22:56:51;16.67;;;11.25;;
56299;SDS011;42209;6.376;-10.782;2023-03-04T22:59:19;17.50;;;11.13;;
56299;SDS011;42209;6.376;-10.782;2023-03-04T23:01:48;17.20;;;11.07;;
56299;SDS011;42209;6.376;-10.782;2023-03-04T23:06:44;20.80;;;12.23;;
56299;SDS011;42209;6.376;-10.782;2023-03-04T23:09:14;17.73;;;13.35;;
56299;SDS011;42209;6.376;-10.782;2023-03-04T23:11:42;18.13;;;12.32;;
56299;SDS011;42209;6.376;-10.782;2023-03-04T23:14:11;17.67;;;12.20;;
56299;SDS011;42209;6.376;-10.782;2023-03-04T23:16:40;19.38;;;12.63;;
56299;SDS011;42209;6.376;-10.782;2023-03-04T23:19:13;23.30;;;14.85;;
56299;SDS011;42209;6.376;-10.782;2023-03-04T23:21:44;19.50;;;12.77;;
56299;SDS011;42209;6.376;-10.782;2023-03-04T23:24:12;21.98;;;14.07;;
56299;SDS011;42209;6.376;-10.782;2023-03-04T23:26:41;21.35;;;14.23;;
56299;SDS011;42209;6.376;-10.782;2023-03-04T23:29:11;20.52;;;14.40;;
56299;SDS011;42209;6.376;-10.782;2023-03-04T23:31:41;22.30;;;14.13;;
56299;SDS011;42209;6.376;-10.782;2023-03-04T23:34:10;22.08;;;14.52;;
56299;SDS011;42209;6.376;-10.782;2023-03-04T23:36:38;22.98;;;14.98;;
56299;SDS011;42209;6.376;-10.782;2023-03-04T23:41:35;16.92;;;12.68;;
56299;SDS011;42209;6.376;-10.782;2023-03-04T23:44:04;20.52;;;12.35;;
56299;SDS011;42209;6.376;-10.782;2023-03-04T23:46:33;21.70;;;12.95;;
56299;SDS011;42209;6.376;-10.782;2023-03-04T23:49:02;22.38;;;13.48;;
56299;SDS011;42209;6.376;-10.782;2023-03-04T23:51:31;25.63;;;14.27;;
56299;SDS011;42209;6.376;-10.782;2023-03-04T23:53:59;20.27;;;13.60;;
56299;SDS011;42209;6.376;-10.782;2023-03-04T23:56:29;21.80;;;14.65;;
56299;SDS011;42209;6.376;-10.782;2023-03-04T23:58:58;23.70;;;13.27;;
